Guetersloh, Germany

2:42 PM CEST on July 03, 2015 (GMT +0200)
GT-Pavenstaedt | | Change Station
CLOSE
Current Station
Personal Weather Station
Location: Gütersloh, NORDRHEIN-WESTFALEN
Elevation: 240 ft
Nearby Weather Stations

Elev 240 ft 51.91 °N, 8.35 °E | Updated 21 seconds ago

Clear
Clear
88.7 °F
Feels Like 88 °F
N
0.0
Wind Variable Wind from SSW
Gusts 0.0 mph

Today
High -- | Low -- °F
--% Chance of Precip.
Yesterday
High -- | Low -- °F
Precip. -- in
5:12 AM 9:48 PM
Full, 97% visible
Pressure 30.24 in
Visibility -9999.0 miles
Clouds
Heat Index 88 °F
Dew Point 60 °F
Humidity 38%
Rainfall 0.04 in
Snow Depth Not available.
UV 4.0 out of 12
Pollen Not available.
Air Quality Not available.
Flu Activity Not available.
METAR EDLP 031220Z VRB04KT CAVOK 30/17 Q1024 RMK ATIS GOL

More Conditions Fewer Conditions

Pressure 30.24 in
Visibility -9999.0 miles
Clouds
Heat Index 88 °F
Dew Point 60 °F
Humidity 38%
Rainfall 0.04 in
Snow Depth Not available.
UV 4.0 out of 12
Pollen Not available.
Air Quality Not available.
Flu Activity Not available.
METAR EDLP 031220Z VRB04KT CAVOK 30/17 Q1024 RMK ATIS GOL

More Conditions Fewer Conditions

10-Day Weather Forecast

×

Almanac

Astronomy

Jul. 03, 2015 Rise Set
Actual Time
Civil Twilight
Nautical Twilight
Astronomical Twilight
Moon
Length of Visible Light
Length of Day
Tomorrow will be .
, % of the Moon is Illuminated

Today's Extremes

Country Highs Country Lows

Community

WunderPhotos

Upload Photos

1,834,660 photos uploaded!

WunderBlogs® & News

Nearby

Air Quality

  Air Quality AQ Index Pollutant
Not available.

Snow Depth

Station Depth Elevation

Earthquake Activity

City Distance Mag. Time & Date
Minimum magnitude displayed is 2.5.

Coastal Water Temperatures

Place Temperature

Stations

Nearby Weather Stations

Station Location Temp. Windchill Dew Point Humidity Wind Precip. Elev Updated Type